Counts Cross Roads, Kentucky
Current Conditions -  °F | °C
As of 8:10 PM on Monday 26 Jan 2015 (Local Time) from KSYM Reporting Station
Overcast Overcast  
Wind Chill: 21°   Ceiling: 2800
Heat Index: 27°   Visibility: 10mi
Dew Point: 21°   Wind: 5mph
Humidity: 80%   Direction: 220°SW
Pressure: 29.95"   Gusts: NA
Location:  38.3543°N, 83.1837°W
Report Text: KSYM 270110Z AUTO 22004KT 10SM OVC028 M03/M06 A2995 RMK AO2
Loading
Personal Weather Stations






























Interactive Weather Map New forecast layout! Learn more

10-Day Weather Forecast

Advertisements
Track Severe Weather on mobile